createdAt,value
2022-12-15T00:00:35.099Z,-7.30
2022-12-15T00:01:55.243Z,-7.20
2022-12-15T00:03:15.715Z,-7.30
2022-12-15T00:04:36.292Z,-7.30
2022-12-15T00:05:56.705Z,-7.30
2022-12-15T00:07:17.165Z,-7.30
2022-12-15T00:08:37.301Z,-7.30
2022-12-15T00:09:57.573Z,-7.30
2022-12-15T00:11:20.931Z,-7.30
2022-12-15T00:12:41.372Z,-7.30
2022-12-15T00:14:02.206Z,-7.30
2022-12-15T00:15:23.007Z,-7.30
2022-12-15T00:16:43.434Z,-7.30
2022-12-15T00:18:03.737Z,-7.30
2022-12-15T00:19:22.646Z,-7.40
2022-12-15T00:20:42.943Z,-7.40
2022-12-15T00:22:03.331Z,-7.40
2022-12-15T00:23:31.291Z,-7.40
2022-12-15T00:24:51.630Z,-7.40
2022-12-15T00:26:12.077Z,-7.40
2022-12-15T00:27:32.507Z,-7.40
2022-12-15T00:28:52.942Z,-7.40
2022-12-15T00:30:13.384Z,-7.40
2022-12-15T00:31:33.901Z,-7.40
2022-12-15T00:32:54.278Z,-7.40
2022-12-15T00:34:14.697Z,-7.40
2022-12-15T00:35:35.252Z,-7.40
2022-12-15T00:36:55.704Z,-7.40
2022-12-15T00:38:16.247Z,-7.40
2022-12-15T00:39:17.835Z,-7.40
2022-12-15T00:40:19.453Z,-7.40
2022-12-15T00:41:21.323Z,-7.40
2022-12-15T00:42:22.910Z,-7.40
2022-12-15T00:43:25.851Z,-7.40
2022-12-15T00:44:27.488Z,-7.40
2022-12-15T00:45:49.057Z,-7.30
2022-12-15T00:46:56.637Z,-7.30
2022-12-15T00:47:58.272Z,-7.30
2022-12-15T00:49:00.233Z,-7.30
2022-12-15T00:50:20.425Z,-7.30
2022-12-15T00:51:22.342Z,-7.30
2022-12-15T00:52:42.527Z,-7.30
2022-12-15T00:54:03.755Z,-7.30
2022-12-15T00:55:24.373Z,-7.40
2022-12-15T00:56:44.845Z,-7.40
2022-12-15T00:58:05.507Z,-7.40
2022-12-15T00:59:25.875Z,-7.50
2022-12-15T01:00:46.775Z,-7.50
2022-12-15T01:02:07.254Z,-7.60
2022-12-15T01:03:33.875Z,-7.60
2022-12-15T01:04:54.604Z,-7.60
2022-12-15T01:06:14.887Z,-7.60
2022-12-15T01:07:35.427Z,-7.60
2022-12-15T01:08:56.058Z,-7.60
2022-12-15T01:10:16.487Z,-7.60
2022-12-15T01:11:36.951Z,-7.70
2022-12-15T01:12:57.430Z,-7.80
2022-12-15T01:14:17.865Z,-7.70
2022-12-15T01:15:38.197Z,-7.80
2022-12-15T01:16:58.632Z,-7.80
2022-12-15T01:18:19.176Z,-7.80
2022-12-15T01:19:39.696Z,-7.70
2022-12-15T01:20:41.299Z,-7.80
2022-12-15T01:21:42.917Z,-7.80
2022-12-15T01:22:49.475Z,-7.80
2022-12-15T01:23:51.079Z,-7.70
2022-12-15T01:24:52.733Z,-7.70
2022-12-15T01:25:54.807Z,-7.70
2022-12-15T01:26:56.414Z,-7.80
2022-12-15T01:27:58.042Z,-7.80
2022-12-15T01:28:59.643Z,-7.80
2022-12-15T01:30:02.379Z,-7.80
2022-12-15T01:31:11.541Z,-7.80
2022-12-15T01:32:13.712Z,-7.80
2022-12-15T01:33:16.481Z,-7.80
2022-12-15T01:34:19.957Z,-7.80
2022-12-15T01:35:22.365Z,-7.80
2022-12-15T01:36:24.020Z,-7.80
2022-12-15T01:37:25.641Z,-7.80
2022-12-15T01:38:28.197Z,-7.80
2022-12-15T01:39:49.805Z,-7.80
2022-12-15T01:40:53.867Z,-7.80
2022-12-15T01:41:55.448Z,-7.80
2022-12-15T01:42:57.075Z,-7.80
2022-12-15T01:44:19.201Z,-7.80
2022-12-15T01:45:29.766Z,-7.90
2022-12-15T01:46:31.461Z,-7.90
2022-12-15T01:47:33.175Z,-7.80
2022-12-15T01:48:48.543Z,-7.80
2022-12-15T01:49:51.376Z,-7.80
2022-12-15T01:51:06.138Z,-7.90
2022-12-15T01:52:09.762Z,-7.90
2022-12-15T01:53:13.033Z,-7.80
2022-12-15T01:54:23.279Z,-7.80
2022-12-15T01:55:27.779Z,-7.70
2022-12-15T01:56:37.300Z,-7.80
2022-12-15T01:57:40.517Z,-7.70
2022-12-15T01:58:45.576Z,-7.70
2022-12-15T01:59:54.454Z,-7.70
2022-12-15T02:00:56.382Z,-7.60
2022-12-15T02:01:58.683Z,-7.60
2022-12-15T02:03:01.919Z,-7.70
2022-12-15T02:04:03.955Z,-7.80
2022-12-15T02:05:06.963Z,-7.80
2022-12-15T02:06:10.141Z,-7.90
2022-12-15T02:07:16.799Z,-7.90
2022-12-15T02:08:18.482Z,-8.00
2022-12-15T02:09:22.636Z,-8.10
2022-12-15T02:10:30.336Z,-8.10
2022-12-15T02:11:39.459Z,-8.00
2022-12-15T02:12:57.439Z,-8.00
2022-12-15T02:14:02.543Z,-7.90
2022-12-15T02:15:16.092Z,-8.00
2022-12-15T02:16:47.208Z,-7.90
2022-12-15T02:18:07.465Z,-7.90
2022-12-15T02:19:43.156Z,-7.90
2022-12-15T02:20:52.985Z,-7.90
2022-12-15T02:22:14.841Z,-7.90
2022-12-15T02:23:39.412Z,-7.90
2022-12-15T02:25:11.784Z,-7.90
2022-12-15T02:26:51.230Z,-7.90
2022-12-15T02:27:59.091Z,-7.90
2022-12-15T02:29:37.416Z,-7.90
2022-12-15T02:31:16.775Z,-7.90
2022-12-15T02:32:34.933Z,-8.00
2022-12-15T02:33:44.123Z,-8.00
2022-12-15T02:35:08.918Z,-7.90
2022-12-15T02:36:26.000Z,-7.90
2022-12-15T02:37:34.028Z,-8.00
2022-12-15T02:38:38.114Z,-8.00
2022-12-15T02:39:39.765Z,-8.00
2022-12-15T02:40:41.791Z,-7.90
2022-12-15T02:41:48.938Z,-8.00
2022-12-15T02:42:55.717Z,-8.00
2022-12-15T02:43:57.370Z,-7.90
2022-12-15T02:45:10.003Z,-7.90
2022-12-15T02:46:23.614Z,-7.90
2022-12-15T02:47:57.039Z,-8.00
2022-12-15T02:49:20.298Z,-8.00
2022-12-15T02:50:34.136Z,-8.00
2022-12-15T02:52:03.534Z,-8.00
2022-12-15T02:53:16.913Z,-8.00
2022-12-15T02:54:21.828Z,-8.00
2022-12-15T02:55:58.528Z,-8.00
2022-12-15T02:57:12.793Z,-8.00
2022-12-15T02:58:23.765Z,-8.00
2022-12-15T02:59:55.518Z,-8.00
2022-12-15T03:01:14.348Z,-8.00
2022-12-15T03:02:16.332Z,-8.10
2022-12-15T03:03:20.719Z,-8.00
2022-12-15T03:04:23.083Z,-8.10
2022-12-15T03:05:25.645Z,-8.10
2022-12-15T03:06:28.427Z,-8.10
2022-12-15T03:07:30.020Z,-8.10
2022-12-15T03:08:31.629Z,-8.10
2022-12-15T03:09:33.585Z,-8.10
2022-12-15T03:10:35.275Z,-8.10
2022-12-15T03:11:37.283Z,-8.10
2022-12-15T03:12:38.899Z,-8.00
2022-12-15T03:13:40.514Z,-8.00
2022-12-15T03:14:42.326Z,-8.00
2022-12-15T03:15:43.937Z,-8.00
2022-12-15T03:16:45.585Z,-8.00
2022-12-15T03:17:47.542Z,-8.00
2022-12-15T03:18:49.166Z,-7.90
2022-12-15T03:19:51.092Z,-7.90
2022-12-15T03:20:53.601Z,-8.00
2022-12-15T03:21:55.259Z,-8.00
2022-12-15T03:22:56.895Z,-8.00
2022-12-15T03:23:58.496Z,-8.00
2022-12-15T03:25:00.212Z,-8.00
2022-12-15T03:26:01.830Z,-8.00
2022-12-15T03:27:04.139Z,-8.10
2022-12-15T03:28:05.774Z,-8.10
2022-12-15T03:29:07.382Z,-8.10
2022-12-15T03:30:09.471Z,-8.10
2022-12-15T03:31:11.140Z,-8.10
2022-12-15T03:32:12.801Z,-8.10
2022-12-15T03:33:14.495Z,-8.10
2022-12-15T03:34:16.250Z,-8.10
2022-12-15T03:35:17.903Z,-8.10
2022-12-15T03:36:19.492Z,-8.10
2022-12-15T03:37:21.103Z,-8.10
2022-12-15T03:38:22.736Z,-8.00
2022-12-15T03:39:24.472Z,-8.10
2022-12-15T03:40:26.309Z,-8.00
2022-12-15T03:41:27.931Z,-8.00
2022-12-15T03:42:48.441Z,-8.00
2022-12-15T03:43:50.047Z,-8.00
2022-12-15T03:44:51.826Z,-8.00
2022-12-15T03:45:53.534Z,-8.00
2022-12-15T03:47:01.356Z,-8.00
2022-12-15T03:48:04.969Z,-8.00
2022-12-15T03:49:07.000Z,-8.00
2022-12-15T03:50:10.066Z,-8.00
2022-12-15T03:51:11.900Z,-8.00
2022-12-15T03:52:13.592Z,-8.00
2022-12-15T03:53:15.204Z,-8.00
2022-12-15T03:54:16.814Z,-8.00
2022-12-15T03:55:19.000Z,-8.00
2022-12-15T03:56:20.791Z,-8.00
2022-12-15T03:57:23.171Z,-8.00
2022-12-15T03:58:24.752Z,-8.10
2022-12-15T03:59:26.377Z,-8.10
2022-12-15T04:00:28.226Z,-8.10
2022-12-15T04:01:35.469Z,-8.10
2022-12-15T04:02:37.222Z,-8.10
2022-12-15T04:03:39.006Z,-8.20
2022-12-15T04:04:40.633Z,-8.20
2022-12-15T04:05:42.267Z,-8.20
2022-12-15T04:06:43.888Z,-8.20
2022-12-15T04:07:45.510Z,-8.20
2022-12-15T04:08:47.167Z,-8.20
2022-12-15T04:09:51.528Z,-8.10
2022-12-15T04:10:53.135Z,-8.10
2022-12-15T04:11:54.841Z,-8.10
2022-12-15T04:13:05.765Z,-8.20
2022-12-15T04:14:08.960Z,-8.20
2022-12-15T04:15:11.535Z,-8.20
2022-12-15T04:16:19.316Z,-8.20
2022-12-15T04:17:21.603Z,-8.20
2022-12-15T04:18:23.763Z,-8.20
2022-12-15T04:19:43.776Z,-8.20
2022-12-15T04:20:45.371Z,-8.10
2022-12-15T04:21:47.005Z,-8.10
2022-12-15T04:22:50.141Z,-8.10
2022-12-15T04:24:10.014Z,-8.10
2022-12-15T04:25:33.360Z,-8.10
2022-12-15T04:26:53.889Z,-8.20
2022-12-15T04:28:14.483Z,-8.20
2022-12-15T04:29:34.824Z,-8.10
2022-12-15T04:30:55.912Z,-8.00
2022-12-15T04:32:16.384Z,-7.90
2022-12-15T04:33:38.890Z,-8.00
2022-12-15T04:34:59.161Z,-7.90
2022-12-15T04:36:19.771Z,-7.90
2022-12-15T04:37:40.152Z,-7.90
2022-12-15T04:39:00.550Z,-7.90
2022-12-15T04:40:21.035Z,-8.00
2022-12-15T04:41:43.139Z,-8.00
2022-12-15T04:43:06.133Z,-8.00
2022-12-15T04:44:26.809Z,-8.00
2022-12-15T04:45:47.454Z,-8.10
2022-12-15T04:47:08.047Z,-8.10
2022-12-15T04:48:29.007Z,-8.20
2022-12-15T04:49:49.800Z,-8.20
2022-12-15T04:51:10.125Z,-8.30
2022-12-15T04:52:30.926Z,-8.30
2022-12-15T04:53:51.274Z,-8.30
2022-12-15T04:55:11.980Z,-8.30
2022-12-15T04:56:34.376Z,-8.30
2022-12-15T04:57:54.873Z,-8.30
2022-12-15T04:59:15.343Z,-8.30
2022-12-15T05:00:35.829Z,-8.20
2022-12-15T05:01:56.383Z,-8.30
2022-12-15T05:03:26.050Z,-8.30
2022-12-15T05:04:46.564Z,-8.30
2022-12-15T05:06:07.079Z,-8.30
2022-12-15T05:07:27.630Z,-8.30
2022-12-15T05:08:50.127Z,-8.30
2022-12-15T05:10:14.956Z,-8.30
2022-12-15T05:11:35.823Z,-8.30
2022-12-15T05:12:56.359Z,-8.30
2022-12-15T05:14:16.839Z,-8.40
2022-12-15T05:15:37.544Z,-8.40
2022-12-15T05:16:57.967Z,-8.40
2022-12-15T05:18:18.276Z,-8.40
2022-12-15T05:19:38.672Z,-8.40
2022-12-15T05:20:59.166Z,-8.40
2022-12-15T05:22:19.777Z,-8.40
2022-12-15T05:23:40.204Z,-8.30
2022-12-15T05:25:00.667Z,-8.30
2022-12-15T05:26:20.993Z,-8.30
2022-12-15T05:27:41.454Z,-8.30
2022-12-15T05:29:01.901Z,-8.30
2022-12-15T05:30:23.040Z,-8.30
2022-12-15T05:31:43.513Z,-8.30
2022-12-15T05:32:45.167Z,-8.20
2022-12-15T05:33:46.781Z,-8.20
2022-12-15T05:34:48.422Z,-8.20
2022-12-15T05:35:50.041Z,-8.30
2022-12-15T05:36:52.902Z,-8.30
2022-12-15T05:37:54.568Z,-8.30
2022-12-15T05:38:56.167Z,-8.30
2022-12-15T05:39:57.800Z,-8.30
2022-12-15T05:41:00.115Z,-8.30
2022-12-15T05:42:01.868Z,-8.30
2022-12-15T05:43:03.897Z,-8.20
2022-12-15T05:44:05.808Z,-8.20
2022-12-15T05:45:07.890Z,-8.20
2022-12-15T05:46:09.707Z,-8.20
2022-12-15T05:47:12.243Z,-8.20
2022-12-15T05:48:14.605Z,-8.20
2022-12-15T05:49:17.806Z,-8.20
2022-12-15T05:50:20.809Z,-8.10
2022-12-15T05:51:22.628Z,-8.10
2022-12-15T05:52:24.426Z,-8.10
2022-12-15T05:53:26.036Z,-8.20
2022-12-15T05:54:27.646Z,-8.10
2022-12-15T05:55:29.514Z,-8.10
2022-12-15T05:56:31.256Z,-8.10
2022-12-15T05:57:32.860Z,-8.10
2022-12-15T05:58:35.800Z,-8.10
2022-12-15T05:59:40.256Z,-8.10
2022-12-15T06:00:41.843Z,-8.10
2022-12-15T06:01:43.592Z,-8.10
2022-12-15T06:02:45.324Z,-8.20
2022-12-15T06:03:47.053Z,-8.10
2022-12-15T06:04:48.649Z,-8.10
2022-12-15T06:05:56.149Z,-8.10
2022-12-15T06:06:58.252Z,-8.10
2022-12-15T06:08:00.145Z,-8.10
2022-12-15T06:09:01.767Z,-8.10
2022-12-15T06:10:04.730Z,-8.10
2022-12-15T06:11:06.925Z,-8.10
2022-12-15T06:12:08.528Z,-8.10
2022-12-15T06:13:10.139Z,-8.10
2022-12-15T06:14:11.828Z,-8.10
2022-12-15T06:15:13.527Z,-8.10
2022-12-15T06:16:19.796Z,-8.10
2022-12-15T06:17:21.530Z,-8.00
2022-12-15T06:18:24.363Z,-8.00
2022-12-15T06:20:12.919Z,-8.00
2022-12-15T06:21:17.883Z,-8.00
2022-12-15T06:22:19.596Z,-8.00
2022-12-15T06:23:21.229Z,-8.00
2022-12-15T06:24:22.991Z,-8.00
2022-12-15T06:25:24.640Z,-8.00
2022-12-15T06:26:28.289Z,-8.00
2022-12-15T06:27:29.937Z,-8.00
2022-12-15T06:28:31.546Z,-8.00
2022-12-15T06:29:33.155Z,-8.00
2022-12-15T06:30:34.860Z,-8.00
2022-12-15T06:31:38.106Z,-8.00
2022-12-15T06:32:39.749Z,-7.90
2022-12-15T06:33:41.681Z,-7.90
2022-12-15T06:34:43.283Z,-7.90
2022-12-15T06:35:45.211Z,-8.00
2022-12-15T06:36:46.966Z,-7.90
2022-12-15T06:37:48.563Z,-7.90
2022-12-15T06:38:50.947Z,-7.90
2022-12-15T06:39:52.522Z,-7.90
2022-12-15T06:40:58.890Z,-7.90
2022-12-15T06:42:00.496Z,-7.90
2022-12-15T06:43:02.118Z,-7.90
2022-12-15T06:44:04.358Z,-7.90
2022-12-15T06:45:08.109Z,-7.90
2022-12-15T06:46:10.268Z,-7.90
2022-12-15T06:47:11.975Z,-7.90
2022-12-15T06:48:13.583Z,-7.80
2022-12-15T06:49:15.199Z,-7.80
2022-12-15T06:50:16.824Z,-7.80
2022-12-15T06:51:18.757Z,-7.80
2022-12-15T06:52:20.345Z,-7.90
2022-12-15T06:53:24.032Z,-7.90
2022-12-15T06:54:25.657Z,-7.90
2022-12-15T06:55:27.252Z,-7.80
2022-12-15T06:56:34.025Z,-7.90
2022-12-15T06:57:36.652Z,-7.90
2022-12-15T06:58:38.273Z,-7.90
2022-12-15T06:59:40.687Z,-7.90
2022-12-15T07:00:44.230Z,-8.00
2022-12-15T07:01:46.271Z,-8.00
2022-12-15T07:02:50.118Z,-8.00
2022-12-15T07:03:53.578Z,-8.00
2022-12-15T07:04:55.473Z,-8.00
2022-12-15T07:06:06.603Z,-7.90
2022-12-15T07:07:10.388Z,-8.00
2022-12-15T07:08:14.494Z,-7.90
2022-12-15T07:09:17.081Z,-7.90
2022-12-15T07:10:18.708Z,-7.90
2022-12-15T07:11:21.723Z,-7.90
2022-12-15T07:12:23.344Z,-7.90
2022-12-15T07:13:25.747Z,-7.90
2022-12-15T07:14:27.435Z,-7.90
2022-12-15T07:15:29.032Z,-8.00
2022-12-15T07:16:31.182Z,-7.90
2022-12-15T07:17:32.896Z,-7.90
2022-12-15T07:18:34.629Z,-7.90
2022-12-15T07:19:36.688Z,-7.90
2022-12-15T07:20:38.343Z,-7.90
2022-12-15T07:21:41.093Z,-7.90
2022-12-15T07:22:42.763Z,-7.90
2022-12-15T07:24:01.569Z,-7.90
2022-12-15T07:25:03.850Z,-7.90
2022-12-15T07:26:11.696Z,-7.90
2022-12-15T07:27:14.503Z,-7.90
2022-12-15T07:28:18.062Z,-8.00
2022-12-15T07:29:23.696Z,-8.00
2022-12-15T07:30:25.437Z,-8.00
2022-12-15T07:31:27.155Z,-8.00
2022-12-15T07:32:28.884Z,-8.00
2022-12-15T07:33:33.783Z,-8.00
2022-12-15T07:34:35.604Z,-8.00
2022-12-15T07:35:37.294Z,-8.00
2022-12-15T07:36:38.944Z,-8.00
2022-12-15T07:37:40.558Z,-8.00
2022-12-15T07:38:42.565Z,-8.00
2022-12-15T07:39:44.204Z,-8.00
2022-12-15T07:40:45.864Z,-8.00
2022-12-15T07:41:47.506Z,-8.00
2022-12-15T07:42:49.156Z,-8.00
2022-12-15T07:43:50.803Z,-8.00
2022-12-15T07:44:52.396Z,-8.00
2022-12-15T07:45:54.337Z,-8.00
2022-12-15T07:46:55.999Z,-8.10
2022-12-15T07:47:57.584Z,-8.10
2022-12-15T07:48:59.368Z,-8.10
2022-12-15T07:50:00.973Z,-8.10
2022-12-15T07:51:11.121Z,-8.10
2022-12-15T07:52:17.318Z,-8.20
2022-12-15T07:53:18.914Z,-8.10
2022-12-15T07:54:20.619Z,-8.10
2022-12-15T07:55:43.340Z,-8.10
2022-12-15T07:56:44.190Z,-8.10
2022-12-15T07:57:52.057Z,-8.10
2022-12-15T07:58:54.007Z,-8.10
2022-12-15T07:59:55.631Z,-8.10
2022-12-15T08:01:01.744Z,-8.10
2022-12-15T08:02:04.801Z,-8.10
2022-12-15T08:03:06.704Z,-8.10
2022-12-15T08:04:08.588Z,-8.10
2022-12-15T08:05:10.792Z,-8.10
2022-12-15T08:06:14.153Z,-8.10
2022-12-15T08:07:15.765Z,-8.10
2022-12-15T08:08:18.425Z,-8.00
2022-12-15T08:09:20.245Z,-8.10
2022-12-15T08:10:21.936Z,-8.00
2022-12-15T08:11:24.886Z,-8.00
2022-12-15T08:12:29.517Z,-8.00
2022-12-15T08:14:01.372Z,-8.00
2022-12-15T08:14:52.708Z,-8.00
2022-12-15T08:15:57.227Z,-8.00
2022-12-15T08:16:58.992Z,-7.90
2022-12-15T08:18:00.652Z,-7.90
2022-12-15T08:19:03.566Z,-7.90
2022-12-15T08:20:09.915Z,-7.90
2022-12-15T08:21:12.049Z,-7.90
2022-12-15T08:22:15.285Z,-7.90
2022-12-15T08:23:17.211Z,-7.80
2022-12-15T08:24:19.354Z,-7.80
2022-12-15T08:25:21.046Z,-7.80
2022-12-15T08:26:29.842Z,-7.70
2022-12-15T08:27:32.191Z,-7.70
2022-12-15T08:28:38.156Z,-7.70
2022-12-15T08:29:55.841Z,-7.70
2022-12-15T08:31:12.623Z,-7.60
2022-12-15T08:32:14.498Z,-7.60
2022-12-15T08:33:16.242Z,-7.60
2022-12-15T08:34:17.940Z,-7.60
2022-12-15T08:35:46.819Z,-7.60
2022-12-15T08:36:41.392Z,-7.50
2022-12-15T08:37:43.042Z,-7.50
2022-12-15T08:38:45.815Z,-7.40
2022-12-15T08:39:47.940Z,-7.40
2022-12-15T08:40:49.546Z,-7.30
2022-12-15T08:41:51.201Z,-7.30
2022-12-15T08:42:52.855Z,-7.30
2022-12-15T08:43:56.415Z,-7.30
2022-12-15T08:44:58.038Z,-7.30
2022-12-15T08:46:00.481Z,-7.20
2022-12-15T08:47:02.871Z,-7.20
2022-12-15T08:48:04.597Z,-7.20
2022-12-15T08:49:06.277Z,-7.10
2022-12-15T08:50:11.194Z,-7.10
2022-12-15T08:51:13.182Z,-7.00
2022-12-15T08:52:14.793Z,-7.00
2022-12-15T08:53:32.303Z,-6.90
2022-12-15T08:54:35.276Z,-6.90
2022-12-15T08:55:36.959Z,-6.80
2022-12-15T08:56:38.730Z,-6.80
2022-12-15T08:57:40.612Z,-6.80
2022-12-15T08:58:42.805Z,-6.70
2022-12-15T08:59:44.590Z,-6.70
2022-12-15T09:00:46.255Z,-6.70
2022-12-15T09:01:48.405Z,-6.70
2022-12-15T09:02:50.288Z,-6.70
2022-12-15T09:03:53.845Z,-6.70
2022-12-15T09:04:55.649Z,-6.60
2022-12-15T09:06:09.048Z,-6.60
2022-12-15T09:07:11.129Z,-6.60
2022-12-15T09:08:12.957Z,-6.50
2022-12-15T09:09:14.680Z,-6.50
2022-12-15T09:10:16.445Z,-6.50
2022-12-15T09:11:18.125Z,-6.40
2022-12-15T09:12:19.745Z,-6.40
2022-12-15T09:13:21.364Z,-6.40
2022-12-15T09:14:29.222Z,-6.30
2022-12-15T09:16:07.062Z,-6.30
2022-12-15T09:16:52.965Z,-6.30
2022-12-15T09:17:54.705Z,-6.30
2022-12-15T09:18:58.691Z,-6.20
2022-12-15T09:20:00.349Z,-6.20
2022-12-15T09:21:04.090Z,-6.20
2022-12-15T09:22:07.728Z,-6.20
2022-12-15T09:23:09.322Z,-6.10
2022-12-15T09:24:18.383Z,-6.10
2022-12-15T09:25:26.524Z,-6.10
2022-12-15T09:26:30.446Z,-6.10
2022-12-15T09:27:32.145Z,-6.10
2022-12-15T09:28:33.880Z,-6.10
2022-12-15T09:29:35.494Z,-6.00
2022-12-15T09:30:37.123Z,-6.00
2022-12-15T09:31:39.544Z,-6.00
2022-12-15T09:32:41.517Z,-6.00
2022-12-15T09:33:44.622Z,-5.90
2022-12-15T09:34:46.208Z,-5.90
2022-12-15T09:35:54.618Z,-5.90
2022-12-15T09:36:56.762Z,-5.90
2022-12-15T09:37:58.387Z,-5.90
2022-12-15T09:39:01.868Z,-5.90
2022-12-15T09:40:06.666Z,-5.90
2022-12-15T09:41:12.946Z,-5.90
2022-12-15T09:42:26.672Z,-5.90
2022-12-15T09:43:38.053Z,-5.80
2022-12-15T09:44:43.708Z,-5.80
2022-12-15T09:45:50.572Z,-5.80
2022-12-15T09:47:11.897Z,-5.80
2022-12-15T09:48:18.585Z,-5.70
2022-12-15T09:49:53.473Z,-5.70
2022-12-15T09:50:56.155Z,-5.60
2022-12-15T09:52:11.046Z,-5.60
2022-12-15T09:53:45.514Z,-5.60
2022-12-15T09:54:38.178Z,-5.60
2022-12-15T09:55:40.248Z,-5.60
2022-12-15T09:56:55.857Z,-5.60
2022-12-15T09:58:11.469Z,-5.60
2022-12-15T09:59:26.042Z,-5.50
2022-12-15T10:00:45.636Z,-5.40
2022-12-15T10:01:55.926Z,-5.30
2022-12-15T10:03:22.967Z,-5.20
2022-12-15T10:04:41.760Z,-5.20
2022-12-15T10:06:16.569Z,-5.10
2022-12-15T10:07:35.944Z,-5.10
2022-12-15T10:08:41.681Z,-5.00
2022-12-15T10:09:43.516Z,-5.00
2022-12-15T10:10:56.100Z,-4.90
2022-12-15T10:12:01.867Z,-4.90
2022-12-15T10:13:17.528Z,-4.80
2022-12-15T10:14:49.872Z,-4.80
2022-12-15T10:15:59.630Z,-4.70
2022-12-15T10:17:17.308Z,-4.60
2022-12-15T10:18:38.326Z,-4.60
2022-12-15T10:19:45.459Z,-4.50
2022-12-15T10:21:02.360Z,-4.40
2022-12-15T10:22:04.415Z,-4.30
2022-12-15T10:23:13.355Z,-4.10
2022-12-15T10:24:44.505Z,-3.60
2022-12-15T10:26:20.779Z,-2.90
2022-12-15T10:27:53.471Z,-1.50
2022-12-15T10:29:25.687Z,-0.40
2022-12-15T10:30:27.743Z,0.60
2022-12-15T10:31:44.608Z,1.10
2022-12-15T10:33:01.132Z,1.80
2022-12-15T10:34:11.212Z,1.90
2022-12-15T10:35:27.576Z,1.80
2022-12-15T10:36:29.339Z,1.90
2022-12-15T10:37:31.227Z,2.10
2022-12-15T10:38:42.359Z,2.20
2022-12-15T10:39:46.851Z,2.10
2022-12-15T10:40:58.575Z,1.80
2022-12-15T10:42:17.197Z,2.00
2022-12-15T10:43:26.247Z,1.90
2022-12-15T10:44:37.580Z,1.90
2022-12-15T10:45:39.834Z,2.00
2022-12-15T10:46:43.985Z,1.90
2022-12-15T10:47:58.907Z,2.10
2022-12-15T10:49:24.589Z,2.00
2022-12-15T10:50:27.576Z,2.30
2022-12-15T10:51:32.453Z,2.50
2022-12-15T10:52:36.718Z,2.50
2022-12-15T10:53:51.365Z,2.40
2022-12-15T10:54:54.685Z,2.50
2022-12-15T10:56:02.154Z,2.60
2022-12-15T10:57:23.411Z,2.80
2022-12-15T10:58:25.181Z,2.90
2022-12-15T10:59:33.048Z,2.90
2022-12-15T11:00:35.129Z,2.90
2022-12-15T11:01:36.809Z,2.90
2022-12-15T11:02:38.898Z,2.80
2022-12-15T11:03:41.465Z,2.80
2022-12-15T11:05:01.912Z,2.60
2022-12-15T11:06:15.819Z,2.20
2022-12-15T11:07:17.885Z,2.10
2022-12-15T11:08:20.071Z,2.10
2022-12-15T11:09:35.341Z,2.10
2022-12-15T11:10:55.751Z,2.10
2022-12-15T11:12:16.317Z,2.00
2022-12-15T11:13:33.034Z,1.90
2022-12-15T11:14:54.935Z,1.90
2022-12-15T11:16:09.662Z,1.70
2022-12-15T11:17:18.524Z,1.50
2022-12-15T11:18:48.710Z,1.40
2022-12-15T11:20:06.266Z,1.30
2022-12-15T11:21:13.844Z,1.30
2022-12-15T11:22:52.210Z,1.30
2022-12-15T11:24:08.640Z,1.30
2022-12-15T11:25:24.952Z,1.30
2022-12-15T11:26:58.252Z,1.40
2022-12-15T11:28:03.587Z,1.50
2022-12-15T11:29:34.696Z,1.40
2022-12-15T11:30:45.497Z,1.30
2022-12-15T11:31:48.746Z,1.10
2022-12-15T11:32:55.728Z,1.10
2022-12-15T11:33:57.524Z,1.20
2022-12-15T11:34:59.757Z,1.10
2022-12-15T11:36:27.595Z,1.00
2022-12-15T11:37:42.314Z,1.20
2022-12-15T11:38:49.552Z,1.30
2022-12-15T11:40:01.288Z,1.30
2022-12-15T11:41:34.202Z,1.40
2022-12-15T11:42:53.430Z,1.50
2022-12-15T11:44:11.934Z,1.70
2022-12-15T11:45:50.360Z,1.80
2022-12-15T11:47:14.477Z,2.10
2022-12-15T11:48:21.108Z,2.20
2022-12-15T11:49:54.334Z,2.60
2022-12-15T11:50:59.353Z,2.80
2022-12-15T11:52:16.893Z,2.90
2022-12-15T11:53:24.652Z,3.10
2022-12-15T11:54:34.983Z,3.20
2022-12-15T11:55:59.700Z,3.20
2022-12-15T11:57:26.630Z,3.20
2022-12-15T11:59:13.152Z,3.20
2022-12-15T12:00:20.461Z,3.40
2022-12-15T12:01:58.859Z,3.40
2022-12-15T12:04:00.668Z,3.40
2022-12-15T12:05:24.100Z,3.10
2022-12-15T12:06:51.840Z,3.10
2022-12-15T12:07:58.445Z,3.30
2022-12-15T12:09:06.906Z,3.50
2022-12-15T12:10:29.001Z,3.60
2022-12-15T12:11:51.850Z,3.90
2022-12-15T12:13:29.737Z,4.00
2022-12-15T12:15:16.430Z,4.00
2022-12-15T12:16:40.976Z,4.20
2022-12-15T12:17:47.870Z,4.00
2022-12-15T12:18:59.627Z,3.90
2022-12-15T12:20:11.466Z,4.10
2022-12-15T12:21:20.609Z,4.20
2022-12-15T12:22:28.069Z,4.30
2022-12-15T12:23:48.207Z,4.40
2022-12-15T12:25:01.074Z,4.30
2022-12-15T12:26:16.821Z,4.40
2022-12-15T12:27:27.635Z,4.50
2022-12-15T12:28:52.341Z,4.30
2022-12-15T12:30:02.271Z,4.20
2022-12-15T12:31:05.850Z,4.00
2022-12-15T12:32:15.834Z,4.00
2022-12-15T12:33:38.817Z,3.70
2022-12-15T12:36:20.629Z,3.20
2022-12-15T12:37:35.471Z,3.00
2022-12-15T12:38:46.285Z,2.90
2022-12-15T12:39:56.227Z,2.80
2022-12-15T12:41:20.994Z,2.70
2022-12-15T12:42:49.893Z,2.40
2022-12-15T12:43:55.621Z,2.30
2022-12-15T12:44:57.209Z,2.20
2022-12-15T12:46:07.655Z,2.20
2022-12-15T12:47:20.821Z,2.30
2022-12-15T12:48:48.513Z,2.20
2022-12-15T12:49:54.508Z,2.10
2022-12-15T12:51:32.961Z,1.90
2022-12-15T12:52:38.052Z,1.50
2022-12-15T12:53:39.642Z,1.40
2022-12-15T12:54:44.553Z,1.20
2022-12-15T12:55:46.152Z,1.00
2022-12-15T12:56:50.402Z,1.00
2022-12-15T12:58:36.297Z,1.00
2022-12-15T12:59:40.982Z,1.00
2022-12-15T13:01:04.506Z,1.00
2022-12-15T13:02:15.579Z,1.00
2022-12-15T13:03:21.403Z,1.00
2022-12-15T13:04:29.108Z,1.10
2022-12-15T13:05:37.153Z,1.10
2022-12-15T13:06:38.686Z,1.00
2022-12-15T13:07:40.896Z,0.90
2022-12-15T13:08:55.696Z,0.70
2022-12-15T13:10:09.195Z,0.50
2022-12-15T13:11:49.068Z,0.50
2022-12-15T13:12:55.618Z,0.50
2022-12-15T13:13:57.422Z,0.50
2022-12-15T13:15:03.876Z,0.50
2022-12-15T13:16:25.784Z,0.60
2022-12-15T13:17:32.191Z,0.60
2022-12-15T13:19:06.710Z,0.50
2022-12-15T13:20:27.811Z,0.60
2022-12-15T13:21:44.469Z,0.80
2022-12-15T13:22:46.470Z,0.90
2022-12-15T13:23:50.529Z,1.00
2022-12-15T13:24:52.267Z,1.10
2022-12-15T13:25:56.876Z,1.10
2022-12-15T13:27:16.609Z,1.20
2022-12-15T13:28:23.151Z,1.30
2022-12-15T13:29:24.829Z,1.40
2022-12-15T13:30:26.952Z,1.50
2022-12-15T13:31:30.289Z,1.60
2022-12-15T13:32:37.121Z,1.70
2022-12-15T13:33:50.989Z,1.70
2022-12-15T13:34:52.810Z,1.90
2022-12-15T13:35:55.130Z,1.90
2022-12-15T13:36:58.218Z,2.00
2022-12-15T13:38:08.285Z,2.30
2022-12-15T13:39:12.746Z,2.40
2022-12-15T13:40:22.904Z,2.60
2022-12-15T13:41:24.605Z,2.70
2022-12-15T13:42:40.728Z,2.80
2022-12-15T13:43:48.979Z,2.70
2022-12-15T13:44:57.227Z,2.80
2022-12-15T13:46:11.601Z,2.80
2022-12-15T13:47:20.678Z,2.80
2022-12-15T13:48:46.105Z,2.80
2022-12-15T13:50:01.312Z,2.80
2022-12-15T13:51:15.809Z,2.70
2022-12-15T13:52:38.176Z,2.70
2022-12-15T13:53:51.845Z,2.70
2022-12-15T13:55:01.065Z,2.50
2022-12-15T13:56:33.189Z,2.50
2022-12-15T13:57:43.022Z,2.60
2022-12-15T13:58:50.749Z,2.40
2022-12-15T14:00:05.102Z,2.40
2022-12-15T14:01:28.644Z,2.10
2022-12-15T14:02:36.203Z,2.00
2022-12-15T14:03:38.428Z,1.90
2022-12-15T14:04:40.407Z,1.90
2022-12-15T14:07:19.674Z,1.70
2022-12-15T14:08:23.731Z,1.60
2022-12-15T14:09:37.907Z,1.50
2022-12-15T14:10:41.560Z,1.30
2022-12-15T14:11:53.098Z,1.10
2022-12-15T14:12:57.447Z,1.10
2022-12-15T14:14:00.859Z,1.00
2022-12-15T14:15:02.576Z,0.90
2022-12-15T14:16:21.116Z,0.80
2022-12-15T14:17:23.085Z,0.80
2022-12-15T14:18:24.677Z,0.80
2022-12-15T14:19:27.291Z,0.70
2022-12-15T14:20:38.544Z,0.60
2022-12-15T14:21:40.661Z,0.50
2022-12-15T14:22:45.183Z,0.50
2022-12-15T14:24:11.328Z,0.60
2022-12-15T14:25:32.205Z,0.60
2022-12-15T14:26:33.839Z,0.60
2022-12-15T14:27:35.420Z,0.60
2022-12-15T14:28:42.579Z,0.60
2022-12-15T14:29:44.702Z,0.60
2022-12-15T14:30:48.659Z,0.60
2022-12-15T14:31:55.790Z,0.70
2022-12-15T14:33:12.664Z,0.50
2022-12-15T14:34:18.443Z,0.60
2022-12-15T14:35:30.112Z,0.60
2022-12-15T14:36:32.958Z,0.70
2022-12-15T14:37:34.951Z,0.60
2022-12-15T14:38:50.391Z,0.60
2022-12-15T14:39:53.197Z,0.60
2022-12-15T14:40:58.066Z,0.50
2022-12-15T14:42:01.489Z,0.40
2022-12-15T14:43:04.796Z,0.30
2022-12-15T14:44:31.739Z,0.20
2022-12-15T14:45:40.545Z,0.10
2022-12-15T14:46:48.850Z,0.00
2022-12-15T14:49:30.765Z,-0.10
2022-12-15T14:50:33.002Z,-0.20
2022-12-15T14:51:48.729Z,-0.30
2022-12-15T14:52:59.376Z,-0.40
2022-12-15T14:54:01.001Z,-0.60
2022-12-15T14:55:25.037Z,-0.60
2022-12-15T14:56:31.207Z,-0.60
2022-12-15T14:57:46.526Z,-0.70
2022-12-15T14:59:06.175Z,-0.70
2022-12-15T15:00:32.049Z,-0.80
2022-12-15T15:01:35.423Z,-0.80
2022-12-15T15:02:37.264Z,-0.80
2022-12-15T15:03:11.324Z,3.50
2022-12-15T15:03:15.775Z,-0.10
2022-12-15T15:03:40.847Z,-0.90
2022-12-15T15:04:42.531Z,-1.00
2022-12-15T15:05:46.476Z,-1.00
2022-12-15T15:06:55.128Z,-1.10
2022-12-15T15:07:56.918Z,-1.20